Rockford, Illinois
Current Conditions -  °F | °C
As of 9:54 AM on Wednesday 28 Jan 2015 (Local Time) from KRFD Reporting Station
Broken Clouds Broken Clouds  
Wind Chill: 15°   Ceiling: 25000
Heat Index: 27°   Visibility: 10mi
Dew Point: 19°   Wind: 16mph
Humidity: 72%   Direction: 170°S
Pressure: 30.24"   Gusts: NA
Location:  42.27°N, 89.08°W
Report Text: KRFD 281554Z 17014KT 10SM BKN250 M03/M07 A3024 RMK AO2 SLP250 T10281072
Loading
Personal Weather Stations






























Interactive Weather Map New forecast layout! Learn more

10-Day Weather Forecast

Advertisements
Track Severe Weather on mobile